Austin Reinauer — WCX8055 — position and weather

sailwx.info

Track history (hours):
 
Tides and Currents Weather Stations Pressure Air Temp Water Temp Dewpoint Dewpoint Depression Visibility Wind Speed Wind Dir Waves Ship Positions

Austin Reinauer

Owner: REINAUER TRANSPORTATION CO, LP, STATEN ISLAND, NY. More information available from US FCC via Universal Licensing System and Coast Guard Vessel Documentation Center.

Last reported at 2017-Jan-20 06:19 UTC. Time now 2017-Jan-20 20:15 UTC.
Position N 42°02' W 070°30'.

Length 33 m; draft 6.7 m.

Type: . MMSI: 366739920.

Date/timePositionNaut miles runAvg speedWind from/ knotsBaromVisibWave heightAir tempDewpointWater temp
2017-Jan-20 06:19N 42°02' W 070°30'7 9.6
2017-Jan-20 05:33N 42°09' W 070°33'10 9.7
2017-Jan-20 04:33N 42°17' W 070°41'1010.0
2017-Jan-20 03:33N 42°23' W 070°52'8 8.4
2017-Jan-20 02:33N 42°22' W 071°03'1 1.2
2017-Jan-20 01:33N 42°23' W 071°03'0 0.0
2017-Jan-20 00:33N 42°23' W 071°03'0 0.0
2017-Jan-19 23:30N 42°23' W 071°03'0 0.0
2017-Jan-19 22:33N 42°23' W 071°03'0 0.0
2017-Jan-19 21:33N 42°23' W 071°03'0 0.0
2017-Jan-19 20:30N 42°23' W 071°03'0 0.0
2017-Jan-19 19:33N 42°23' W 071°03'0 0.0
2017-Jan-19 18:33N 42°23' W 071°03'0 0.0
2017-Jan-19 17:30N 42°23' W 071°03'0 0.0
2017-Jan-19 16:30N 42°23' W 071°03'0 0.0
2017-Jan-19 15:32N 42°23' W 071°03'0 0.0
2017-Jan-19 14:32N 42°23' W 071°03'0 0.0
2017-Jan-19 13:29N 42°23' W 071°03'0 0.0
2017-Jan-19 12:32N 42°23' W 071°03'0 0.0
2017-Jan-19 11:23N 42°23' W 071°03'0 0.0
2017-Jan-19 10:23N 42°23' W 071°03'0 0.0
2017-Jan-19 09:32N 42°23' W 071°03'0 0.0
2017-Jan-19 08:32N 42°23' W 071°03'0 0.0
2017-Jan-19 07:33N 42°23' W 071°03'4 4.5
2017-Jan-19 06:33N 42°20' W 070°59'9 9.0
2017-Jan-19 05:33N 42°22' W 070°47'9 9.5
2017-Jan-19 04:33N 42°15' W 070°38'55 6.1
2017-Jan-18 19:26N 41°30' W 071°21'910.4
2017-Jan-18 18:33N 41°39' W 071°19'8 2.6
2017-Jan-18 15:22N 41°47' W 071°22'0 0.0
2017-Jan-18 14:33N 41°47' W 071°22'0 0.0
2017-Jan-18 12:26N 41°47' W 071°22'0 0.0
2017-Jan-18 11:12N 41°47' W 071°22'0 0.0
2017-Jan-18 10:33N 41°47' W 071°22'0 0.0
2017-Jan-18 09:33N 41°47' W 071°22'0 0.0
2017-Jan-18 08:31N 41°47' W 071°22'0 0.0
2017-Jan-18 06:33N 41°47' W 071°22'0 0.0
2017-Jan-18 04:30N 41°47' W 071°22'0 0.0
2017-Jan-18 03:30N 41°47' W 071°22'0 0.0
2017-Jan-18 02:32N 41°47' W 071°22'0 0.0
2017-Jan-18 01:33N 41°47' W 071°22'2 2.3
2017-Jan-18 00:33N 41°45' W 071°22'128 8.0
2017-Jan-17 08:32N 40°30' W 073°41'9 9.4
2017-Jan-17 07:32N 40°29' W 073°53'9 9.3
2017-Jan-17 06:33N 40°35' W 074°02'5 5.2
2017-Jan-17 05:33N 40°39' W 074°05'0 0.0
2017-Jan-17 04:33N 40°39' W 074°05'0 0.0
2017-Jan-17 03:33N 40°39' W 074°05'0 0.0
2017-Jan-17 02:33N 40°39' W 074°05'0 0.0
2017-Jan-17 01:33N 40°39' W 074°05'0 0.0
2017-Jan-17 00:33N 40°39' W 074°05'0 0.0
2017-Jan-16 23:33N 40°39' W 074°05'0 0.0
2017-Jan-16 22:33N 40°39' W 074°05'2 1.8
2017-Jan-16 21:33N 40°39' W 074°07'2 1.8
2017-Jan-16 20:33N 40°39' W 074°05'0 0.0
2017-Jan-16 19:33N 40°39' W 074°05'0 0.0
2017-Jan-16 18:33N 40°39' W 074°05'0 0.0
2017-Jan-16 17:33N 40°39' W 074°05'0 0.0
2017-Jan-16 16:33N 40°39' W 074°05'0 0.0
2017-Jan-16 15:33N 40°39' W 074°05'0 0.0
2017-Jan-16 14:33N 40°39' W 074°05'0 0.0
2017-Jan-16 13:33N 40°39' W 074°05'0 0.0
2017-Jan-16 12:33N 40°39' W 074°05'0 0.0
2017-Jan-16 11:33N 40°39' W 074°05'0 0.0
2017-Jan-16 10:33N 40°39' W 074°05'0 0.0
2017-Jan-16 09:33N 40°39' W 074°05'0 0.0
2017-Jan-16 08:33N 40°39' W 074°05'0 0.0
2017-Jan-16 07:33N 40°39' W 074°05'0 0.0
2017-Jan-16 06:33N 40°39' W 074°05'0 0.0
2017-Jan-16 05:33N 40°39' W 074°05'0 0.0
2017-Jan-16 04:33N 40°39' W 074°05'0 0.0
2017-Jan-16 03:33N 40°39' W 074°05'2 2.1
2017-Jan-16 02:33N 40°38' W 074°08'1 1.0
2017-Jan-16 01:33N 40°39' W 074°07'0 0.0
2017-Jan-16 00:33N 40°39' W 074°07'0 0.0
2017-Jan-15 23:33N 40°39' W 074°07'1 1.2
2017-Jan-15 22:33N 40°39' W 074°05'0 0.0
2017-Jan-15 21:33N 40°39' W 074°05'2 2.3
2017-Jan-15 20:33N 40°40' W 074°02'0 0.0
2017-Jan-15 19:33N 40°40' W 074°02'0 0.0
2017-Jan-15 18:33N 40°40' W 074°02'0 0.1
2017-Jan-15 17:33N 40°40' W 074°02'6 6.3
2017-Jan-15 16:33N 40°45' W 073°58'9 8.2
2017-Jan-15 15:31N 40°48' W 073°47'10 0.3
2017-Jan-14 05:32N 40°55' W 073°38'8 8.4
2017-Jan-14 04:33N 40°50' W 073°46'7 6.9
2017-Jan-14 03:33N 40°47' W 073°55'16 4.0
2017-Jan-13 23:33N 40°38' W 074°12'6 5.6
2017-Jan-13 22:33N 40°33' W 074°15'4 0.1
2017-Jan-12 13:18N 40°30' W 074°11'5 7.0
2017-Jan-12 12:32N 40°29' W 074°04'8 8.1
2017-Jan-12 11:33N 40°37' W 074°03'7 7.4
2017-Jan-12 10:34N 40°43' W 073°58'6 5.9
2017-Jan-12 09:30N 40°48' W 073°53'18 0.6
2017-Jan-11 03:24N 40°57' W 073°32'7 8.8
2017-Jan-11 02:33N 40°54' W 073°41'8 7.7
2017-Jan-11 01:30N 40°48' W 073°49'7 7.6
2017-Jan-11 00:34N 40°45' W 073°58'7 6.9
2017-Jan-10 23:33N 40°40' W 074°03'0 0.0
2017-Jan-10 22:33N 40°40' W 074°03'0 0.0
2017-Jan-10 21:33N 40°40' W 074°03'0 0.1
2017-Jan-10 20:33N 40°40' W 074°03'5 5.4
2017-Jan-10 19:33N 40°39' W 074°10'5 5.0
2017-Jan-10 18:33N 40°34' W 074°13'2 2.2
2017-Jan-10 17:32N 40°33' W 074°15'  
Track history (hours):
 
Tides and Currents Weather Stations Pressure Air Temp Water Temp Dewpoint Dewpoint Depression Visibility Wind Speed Wind Dir Waves Ship Positions

Austin Reinauer

Owner: REINAUER TRANSPORTATION CO, LP, STATEN ISLAND, NY. More information available from US FCC via Universal Licensing System and Coast Guard Vessel Documentation Center.

Last reported at 2017-Jan-20 06:19 UTC. Time now 2017-Jan-20 20:15 UTC.
Position N 42°02' W 070°30'.

Length 33 m; draft 6.7 m.

Type: . MMSI: 366739920.

Date/timePositionNaut miles runAvg speedWind from/ knotsBaromVisibWave heightAir tempDewpointWater temp
2017-Jan-20 06:19N 42°02' W 070°30'7 9.6
2017-Jan-20 05:33N 42°09' W 070°33'10 9.7
2017-Jan-20 04:33N 42°17' W 070°41'1010.0
2017-Jan-20 03:33N 42°23' W 070°52'8 8.4
2017-Jan-20 02:33N 42°22' W 071°03'1 1.2
2017-Jan-20 01:33N 42°23' W 071°03'0 0.0
2017-Jan-20 00:33N 42°23' W 071°03'0 0.0
2017-Jan-19 23:30N 42°23' W 071°03'0 0.0
2017-Jan-19 22:33N 42°23' W 071°03'0 0.0
2017-Jan-19 21:33N 42°23' W 071°03'0 0.0
2017-Jan-19 20:30N 42°23' W 071°03'0 0.0
2017-Jan-19 19:33N 42°23' W 071°03'0 0.0
2017-Jan-19 18:33N 42°23' W 071°03'0 0.0
2017-Jan-19 17:30N 42°23' W 071°03'0 0.0
2017-Jan-19 16:30N 42°23' W 071°03'0 0.0
2017-Jan-19 15:32N 42°23' W 071°03'0 0.0
2017-Jan-19 14:32N 42°23' W 071°03'0 0.0
2017-Jan-19 13:29N 42°23' W 071°03'0 0.0
2017-Jan-19 12:32N 42°23' W 071°03'0 0.0
2017-Jan-19 11:23N 42°23' W 071°03'0 0.0
2017-Jan-19 10:23N 42°23' W 071°03'0 0.0
2017-Jan-19 09:32N 42°23' W 071°03'0 0.0
2017-Jan-19 08:32N 42°23' W 071°03'0 0.0
2017-Jan-19 07:33N 42°23' W 071°03'4 4.5
2017-Jan-19 06:33N 42°20' W 070°59'9 9.0
2017-Jan-19 05:33N 42°22' W 070°47'9 9.5
2017-Jan-19 04:33N 42°15' W 070°38'55 6.1
2017-Jan-18 19:26N 41°30' W 071°21'910.4
2017-Jan-18 18:33N 41°39' W 071°19'8 2.6
2017-Jan-18 15:22N 41°47' W 071°22'0 0.0
2017-Jan-18 14:33N 41°47' W 071°22'0 0.0
2017-Jan-18 12:26N 41°47' W 071°22'0 0.0
2017-Jan-18 11:12N 41°47' W 071°22'0 0.0
2017-Jan-18 10:33N 41°47' W 071°22'0 0.0
2017-Jan-18 09:33N 41°47' W 071°22'0 0.0
2017-Jan-18 08:31N 41°47' W 071°22'0 0.0
2017-Jan-18 06:33N 41°47' W 071°22'0 0.0
2017-Jan-18 04:30N 41°47' W 071°22'0 0.0
2017-Jan-18 03:30N 41°47' W 071°22'0 0.0
2017-Jan-18 02:32N 41°47' W 071°22'0 0.0
2017-Jan-18 01:33N 41°47' W 071°22'2 2.3
2017-Jan-18 00:33N 41°45' W 071°22'128 8.0
2017-Jan-17 08:32N 40°30' W 073°41'9 9.4
2017-Jan-17 07:32N 40°29' W 073°53'9 9.3
2017-Jan-17 06:33N 40°35' W 074°02'5 5.2
2017-Jan-17 05:33N 40°39' W 074°05'0 0.0
2017-Jan-17 04:33N 40°39' W 074°05'0 0.0
2017-Jan-17 03:33N 40°39' W 074°05'0 0.0
2017-Jan-17 02:33N 40°39' W 074°05'0 0.0
2017-Jan-17 01:33N 40°39' W 074°05'0 0.0
2017-Jan-17 00:33N 40°39' W 074°05'0 0.0
2017-Jan-16 23:33N 40°39' W 074°05'0 0.0
2017-Jan-16 22:33N 40°39' W 074°05'2 1.8
2017-Jan-16 21:33N 40°39' W 074°07'2 1.8
2017-Jan-16 20:33N 40°39' W 074°05'0 0.0
2017-Jan-16 19:33N 40°39' W 074°05'0 0.0
2017-Jan-16 18:33N 40°39' W 074°05'0 0.0
2017-Jan-16 17:33N 40°39' W 074°05'0 0.0
2017-Jan-16 16:33N 40°39' W 074°05'0 0.0
2017-Jan-16 15:33N 40°39' W 074°05'0 0.0
2017-Jan-16 14:33N 40°39' W 074°05'0 0.0
2017-Jan-16 13:33N 40°39' W 074°05'0 0.0
2017-Jan-16 12:33N 40°39' W 074°05'0 0.0
2017-Jan-16 11:33N 40°39' W 074°05'0 0.0
2017-Jan-16 10:33N 40°39' W 074°05'0 0.0
2017-Jan-16 09:33N 40°39' W 074°05'0 0.0
2017-Jan-16 08:33N 40°39' W 074°05'0 0.0
2017-Jan-16 07:33N 40°39' W 074°05'0 0.0
2017-Jan-16 06:33N 40°39' W 074°05'0 0.0
2017-Jan-16 05:33N 40°39' W 074°05'0 0.0
2017-Jan-16 04:33N 40°39' W 074°05'0 0.0
2017-Jan-16 03:33N 40°39' W 074°05'2 2.1
2017-Jan-16 02:33N 40°38' W 074°08'1 1.0
2017-Jan-16 01:33N 40°39' W 074°07'0 0.0
2017-Jan-16 00:33N 40°39' W 074°07'0 0.0
2017-Jan-15 23:33N 40°39' W 074°07'1 1.2
2017-Jan-15 22:33N 40°39' W 074°05'0 0.0
2017-Jan-15 21:33N 40°39' W 074°05'2 2.3
2017-Jan-15 20:33N 40°40' W 074°02'0 0.0
2017-Jan-15 19:33N 40°40' W 074°02'0 0.0
2017-Jan-15 18:33N 40°40' W 074°02'0 0.1
2017-Jan-15 17:33N 40°40' W 074°02'6 6.3
2017-Jan-15 16:33N 40°45' W 073°58'9 8.2
2017-Jan-15 15:31N 40°48' W 073°47'10 0.3
2017-Jan-14 05:32N 40°55' W 073°38'8 8.4
2017-Jan-14 04:33N 40°50' W 073°46'7 6.9
2017-Jan-14 03:33N 40°47' W 073°55'16 4.0
2017-Jan-13 23:33N 40°38' W 074°12'6 5.6
2017-Jan-13 22:33N 40°33' W 074°15'4 0.1
2017-Jan-12 13:18N 40°30' W 074°11'5 7.0
2017-Jan-12 12:32N 40°29' W 074°04'8 8.1
2017-Jan-12 11:33N 40°37' W 074°03'7 7.4
2017-Jan-12 10:34N 40°43' W 073°58'6 5.9
2017-Jan-12 09:30N 40°48' W 073°53'18 0.6
2017-Jan-11 03:24N 40°57' W 073°32'7 8.8
2017-Jan-11 02:33N 40°54' W 073°41'8 7.7
2017-Jan-11 01:30N 40°48' W 073°49'7 7.6
2017-Jan-11 00:34N 40°45' W 073°58'7 6.9
2017-Jan-10 23:33N 40°40' W 074°03'0 0.0
2017-Jan-10 22:33N 40°40' W 074°03'0 0.0
2017-Jan-10 21:33N 40°40' W 074°03'0 0.1
2017-Jan-10 20:33N 40°40' W 074°03'5 5.4
2017-Jan-10 19:33N 40°39' W 074°10'5 5.0
2017-Jan-10 18:33N 40°34' W 074°13'2 2.2
2017-Jan-10 17:32N 40°33' W 074°15'  

Dump ship's entire track history